Time;durP1;ratioP1;P1;durP2;ratioP2;P2;SDS_P1;SDS_P2;PMS_P1;PMS_P2;Temp;Humidity;BMP_temperature;BMP_pressure;BME280_temperature;BME280_humidity;BME280_pressure;Samples;Min_cycle;Max_cycle;Signal;HPM_P1;HPM_P2
2021/04/08 00:02:17;;;;;;;1999.90;999.90;;;2.00;96.20;;;;;;5055653;28;20235;-69
2021/04/08 00:04:43;;;;;;;1999.90;999.90;;;2.00;96.20;;;;;;5066633;28;20048;-70
2021/04/08 00:07:09;;;;;;;1999.90;999.90;;;2.10;96.30;;;;;;5067347;28;20052;-69
2021/04/08 00:09:36;;;;;;;1999.90;999.90;;;2.10;96.50;;;;;;5067088;28;20560;-69
2021/04/08 00:12:02;;;;;;;1999.90;999.90;;;2.10;96.80;;;;;;5067880;28;20066;-70
2021/04/08 00:14:28;;;;;;;1999.90;999.90;;;2.10;96.80;;;;;;5061046;28;20064;-69
2021/04/08 00:16:54;;;;;;;1999.90;999.90;;;2.10;96.80;;;;;;5067601;28;20063;-69
2021/04/08 00:19:21;;;;;;;1999.90;999.90;;;2.20;97.50;;;;;;5069024;28;20063;-69
2021/04/08 00:21:47;;;;;;;1999.90;999.90;;;2.20;97.30;;;;;;5064438;28;20356;-69
2021/04/08 00:24:14;;;;;;;1999.90;999.90;;;2.30;97.20;;;;;;5067248;28;20085;-69
2021/04/08 00:26:40;;;;;;;1999.90;999.90;;;2.30;97.50;;;;;;5065089;28;20143;-69
2021/04/08 00:29:07;;;;;;;1999.90;999.90;;;2.40;97.40;;;;;;5069291;28;20041;-69
2021/04/08 00:31:33;;;;;;;1999.90;999.90;;;2.40;97.30;;;;;;5066957;28;20427;-69
2021/04/08 00:34:07;;;;;;;1999.90;999.90;;;2.40;97.30;;;;;;5063596;28;20048;-69
2021/04/08 00:36:33;;;;;;;1999.90;999.90;;;2.50;97.40;;;;;;5063477;28;20076;-70
2021/04/08 00:38:59;;;;;;;1999.90;999.90;;;2.50;97.80;;;;;;5070890;28;20064;-69
2021/04/08 00:41:26;;;;;;;1999.90;999.90;;;2.60;98.50;;;;;;5063311;28;20403;-69
2021/04/08 00:43:52;;;;;;;1999.90;999.90;;;2.60;98.60;;;;;;5059697;28;20077;-69
2021/04/08 00:46:18;;;;;;;1999.90;999.90;;;2.50;97.80;;;;;;5068599;28;20051;-69
2021/04/08 00:48:44;;;;;;;1999.90;999.90;;;2.50;97.80;;;;;;5064688;28;20165;-69
2021/04/08 00:51:11;;;;;;;1999.90;999.90;;;2.50;97.70;;;;;;5067396;28;20051;-69
2021/04/08 00:53:37;;;;;;;1999.90;999.90;;;2.40;97.20;;;;;;5064738;28;20051;-69
2021/04/08 00:56:06;;;;;;;1999.90;999.90;;;2.40;96.80;;;;;;5067611;28;20529;-69
2021/04/08 00:58:32;;;;;;;1999.90;999.90;;;2.40;96.50;;;;;;5062588;28;20055;-69
2021/04/08 01:00:59;;;;;;;1999.90;999.90;;;2.40;96.30;;;;;;5067130;28;20055;-69
2021/04/08 01:03:25;;;;;;;1999.90;999.90;;;2.40;96.30;;;;;;5062368;28;20040;-69
2021/04/08 01:05:51;;;;;;;1999.90;999.90;;;2.40;96.20;;;;;;5064205;28;20048;-69
2021/04/08 01:08:18;;;;;;;1999.90;999.90;;;2.40;96.20;;;;;;5068360;28;20151;-69
2021/04/08 01:10:45;;;;;;;1999.90;999.90;;;2.40;96.30;;;;;;5061953;28;20045;-69
2021/04/08 01:13:15;;;;;;;1999.90;999.90;;;2.40;96.20;;;;;;5063010;28;20055;-69
2021/04/08 01:15:41;;;;;;;1999.90;999.90;;;2.40;96.00;;;;;;5067804;28;20056;-69
2021/04/08 01:18:32;;;;;;;1999.90;999.90;;;2.40;96.20;;;;;;5061667;28;20562;-69
2021/04/08 01:21:07;;;;;;;1999.90;999.90;;;2.40;96.30;;;;;;5058673;28;20097;-69
2021/04/08 01:24:07;;;;;;;1999.90;999.90;;;2.30;96.60;;;;;;5066881;28;20055;-69
2021/04/08 01:26:39;;;;;;;1999.90;999.90;;;2.30;96.70;;;;;;5056607;28;20076;-69
2021/04/08 01:29:29;;;;;;;1999.90;999.90;;;2.30;96.60;;;;;;5057212;28;20040;-69
2021/04/08 01:32:01;;;;;;;1999.90;999.90;;;2.30;96.50;;;;;;5058109;28;20052;-69
2021/04/08 01:34:30;;;;;;;1999.90;999.90;;;2.30;96.50;;;;;;5055235;28;20061;-69
2021/04/08 01:37:00;;;;;;;1999.90;999.90;;;2.30;96.70;;;;;;5063839;28;20040;-72
2021/04/08 01:39:27;;;;;;;1999.90;999.90;;;2.30;96.90;;;;;;5066505;28;20047;-69
2021/04/08 01:41:55;;;;;;;1999.90;999.90;;;2.40;97.00;;;;;;5063848;28;20064;-69
2021/04/08 01:44:25;;;;;;;1999.90;999.90;;;2.40;97.00;;;;;;5066926;28;20048;-69
2021/04/08 01:47:05;;;;;;;1999.90;999.90;;;2.40;96.80;;;;;;5067592;28;20071;-69
2021/04/08 01:49:34;;;;;;;1999.90;999.90;;;2.40;97.10;;;;;;5067663;28;20048;-69
2021/04/08 01:52:01;;;;;;;1999.90;999.90;;;2.40;96.90;;;;;;5060744;28;20059;-69
2021/04/08 01:54:31;;;;;;;1999.90;999.90;;;2.40;96.70;;;;;;5061496;28;20399;-69
2021/04/08 01:57:02;;;;;;;1999.90;999.90;;;2.40;97.10;;;;;;5061313;28;20132;-69
2021/04/08 01:59:29;;;;;;;1999.90;999.90;;;2.30;97.20;;;;;;5060958;28;20131;-69
2021/04/08 02:01:59;;;;;;;1999.90;999.90;;;2.30;96.90;;;;;;5063910;28;20737;-69
2021/04/08 02:04:27;;;;;;;1999.90;999.90;;;2.30;96.80;;;;;;5066741;28;20131;-69
2021/04/08 02:06:55;;;;;;;1999.90;999.90;;;2.30;96.70;;;;;;5064009;28;20098;-69
2021/04/08 02:09:22;;;;;;;1999.90;999.90;;;2.30;96.50;;;;;;5065861;28;20140;-69
2021/04/08 02:11:51;;;;;;;1999.90;999.90;;;2.30;96.50;;;;;;5066862;28;20056;-69
2021/04/08 02:14:18;;;;;;;1999.90;999.90;;;2.30;96.50;;;;;;5063909;28;20055;-69
2021/04/08 02:16:49;;;;;;;1999.90;999.90;;;2.30;96.60;;;;;;5066832;28;20040;-69
2021/04/08 02:19:19;;;;;;;1999.90;999.90;;;2.40;96.90;;;;;;5067657;28;20397;-69
2021/04/08 02:21:46;;;;;;;;;;;2.40;96.60;;;;;;5063420;28;20482;-69
2021/04/08 02:24:15;;;;;;;1999.90;999.90;;;2.40;96.90;;;;;;5065968;28;20388;-69
2021/04/08 02:26:43;;;;;;;1999.90;999.90;;;2.40;96.70;;;;;;5059069;28;20147;-69
2021/04/08 02:29:11;;;;;;;1999.90;999.90;;;2.30;96.70;;;;;;5062897;28;20086;-69
2021/04/08 02:31:39;;;;;;;1999.90;999.90;;;2.30;96.70;;;;;;5062693;28;20131;-70
2021/04/08 02:34:10;;;;;;;1999.90;999.90;;;2.30;96.70;;;;;;5062030;28;20045;-69
2021/04/08 02:36:37;;;;;;;1999.90;999.90;;;2.30;96.60;;;;;;5064490;28;20063;-69
2021/04/08 02:39:06;;;;;;;1999.90;999.90;;;2.20;96.60;;;;;;5067491;28;20045;-69
2021/04/08 02:41:39;;;;;;;1999.90;999.90;;;2.20;96.60;;;;;;5068015;28;20044;-69
2021/04/08 02:44:05;;;;;;;1999.90;999.90;;;2.20;96.60;;;;;;5066017;28;20075;-69
2021/04/08 02:46:32;;;;;;;1999.90;999.90;;;2.20;96.80;;;;;;5066938;28;20096;-69
2021/04/08 02:48:59;;;;;;;1999.90;999.90;;;2.20;96.90;;;;;;5065816;28;20049;-69
2021/04/08 02:51:32;;;;;;;1999.90;999.90;;;2.30;96.90;;;;;;5067760;28;20036;-68
2021/04/08 02:54:08;;;;;;;1999.90;999.90;;;2.30;96.90;;;;;;5070076;28;20093;-69
2021/04/08 02:56:47;;;;;;;1999.90;999.90;;;2.30;96.90;;;;;;5064603;28;20383;-69
2021/04/08 02:59:27;;;;;;;1999.90;999.90;;;2.30;96.90;;;;;;5058904;28;20056;-69
2021/04/08 03:02:13;;;;;;;1999.90;999.90;;;2.30;96.90;;;;;;5059734;28;20059;-69
2021/04/08 03:04:49;;;;;;;1999.90;999.90;;;2.30;96.90;;;;;;5061966;28;20420;-69
2021/04/08 03:07:23;;;;;;;1999.90;999.90;;;2.30;96.90;;;;;;5060566;28;20048;-69
2021/04/08 03:09:51;;;;;;;1999.90;999.90;;;2.30;96.90;;;;;;5062080;28;20055;-69
2021/04/08 03:12:19;;;;;;;1999.90;999.90;;;2.30;96.80;;;;;;5057646;28;20037;-70
2021/04/08 03:14:50;;;;;;;1999.90;999.90;;;2.30;96.80;;;;;;5061985;28;20143;-69
2021/04/08 03:17:19;;;;;;;1999.90;999.90;;;2.20;96.90;;;;;;5065861;28;20044;-69
2021/04/08 03:19:46;;;;;;;1999.90;999.90;;;2.30;97.20;;;;;;5070994;28;20143;-69
2021/04/08 03:22:14;;;;;;;1999.90;999.90;;;2.20;97.00;;;;;;5070030;28;20044;-70
2021/04/08 03:24:41;;;;;;;1999.90;999.90;;;2.20;97.00;;;;;;5084012;28;20041;-69
2021/04/08 03:27:09;;;;;;;1999.90;999.90;;;2.20;97.00;;;;;;5066560;28;20048;-69
2021/04/08 03:37:10;;;;;;;1999.90;999.90;;;2.20;97.30;;;;;;5072532;28;20848;-69
2021/04/08 03:39:36;;;;;;;1999.90;999.90;;;2.20;97.50;;;;;;5069059;28;20140;-69
2021/04/08 03:42:04;;;;;;;1999.90;999.90;;;2.20;97.50;;;;;;5072955;28;20040;-69
2021/04/08 03:44:32;;;;;;;1999.90;999.90;;;2.20;97.60;;;;;;5064546;28;20053;-69
2021/04/08 03:46:59;;;;;;;1999.90;999.90;;;2.20;98.50;;;;;;5066311;28;20048;-70
2021/04/08 03:49:27;;;;;;;1999.90;999.90;;;2.20;98.20;;;;;;5070312;28;20484;-69
2021/04/08 03:51:54;;;;;;;1999.90;999.90;;;2.20;98.00;;;;;;5070886;28;20080;-69
2021/04/08 03:54:22;;;;;;;1999.90;999.90;;;2.20;98.10;;;;;;5065268;28;20055;-69
2021/04/08 03:56:51;;;;;;;1999.90;999.90;;;2.30;98.00;;;;;;5066878;28;20049;-69
2021/04/08 03:59:18;;;;;;;;;;;2.30;97.90;;;;;;5069192;28;20044;-69
2021/04/08 04:01:46;;;;;;;1999.90;999.90;;;2.30;98.20;;;;;;5069008;28;19929;-69
2021/04/08 04:04:13;;;;;;;1999.90;999.90;;;2.30;97.70;;;;;;5063864;28;20064;-69
2021/04/08 04:06:42;;;;;;;1999.90;999.90;;;2.30;97.40;;;;;;5068084;28;20052;-69
2021/04/08 04:09:13;;;;;;;1999.90;999.90;;;2.40;97.50;;;;;;5070914;28;20656;-69
2021/04/08 04:11:44;;;;;;;1999.90;999.90;;;2.40;97.40;;;;;;5068721;28;20931;-70
2021/04/08 04:14:14;;;;;;;1999.90;999.90;;;2.40;97.40;;;;;;5068787;28;20054;-69
2021/04/08 04:16:47;;;;;;;1999.90;999.90;;;2.40;97.30;;;;;;5069158;28;20056;-69
2021/04/08 04:19:14;;;;;;;1999.90;999.90;;;2.40;97.30;;;;;;5061213;28;20052;-69
2021/04/08 04:21:41;;;;;;;1999.90;999.90;;;2.30;97.30;;;;;;5059118;28;20055;-69
2021/04/08 04:24:07;;;;;;;1999.90;999.90;;;2.30;97.30;;;;;;5060406;28;20139;-69
2021/04/08 04:26:34;;;;;;;1999.90;999.90;;;2.20;97.30;;;;;;5063753;28;20068;-69
2021/04/08 04:29:00;;;;;;;1999.90;999.90;;;2.20;97.40;;;;;;5067830;28;20101;-69
2021/04/08 04:31:27;;;;;;;1999.90;999.90;;;2.10;97.40;;;;;;5067039;28;20139;-69
2021/04/08 04:33:53;;;;;;;1999.90;999.90;;;2.10;97.40;;;;;;5064101;28;20052;-69
2021/04/08 04:36:19;;;;;;;1999.90;999.90;;;2.10;97.40;;;;;;5066157;28;20136;-69
2021/04/08 04:38:46;;;;;;;1999.90;999.90;;;2.10;97.40;;;;;;5068771;28;20040;-69
2021/04/08 04:41:12;;;;;;;1999.90;999.90;;;2.00;97.30;;;;;;5067214;28;20090;-69
2021/04/08 04:43:40;;;;;;;1999.90;999.90;;;2.00;97.30;;;;;;5058174;28;20048;-69
2021/04/08 04:46:09;;;;;;;1999.90;999.90;;;2.00;97.30;;;;;;5067727;28;20044;-70
2021/04/08 04:48:36;;;;;;;1999.90;999.90;;;2.00;97.20;;;;;;5064195;28;20989;-69
2021/04/08 04:51:04;;;;;;;1999.90;999.90;;;1.90;97.20;;;;;;5070775;28;20135;-69
2021/04/08 04:53:30;;;;;;;1999.90;999.90;;;1.90;97.20;;;;;;5059478;28;20372;-69
2021/04/08 04:55:57;;;;;;;1999.90;999.90;;;1.90;97.10;;;;;;5062838;28;20131;-69
2021/04/08 04:58:23;;;;;;;1999.90;999.90;;;1.90;97.10;;;;;;5056441;28;20113;-69
2021/04/08 05:00:56;;;;;;;1999.90;999.90;;;1.90;97.00;;;;;;5065995;28;20119;-69
2021/04/08 05:03:22;;;;;;;1999.90;999.90;;;1.80;96.70;;;;;;5054653;28;20130;-69
2021/04/08 05:05:48;;;;;;;1999.90;999.90;;;1.70;96.60;;;;;;5063918;28;20040;-69
2021/04/08 05:08:15;;;;;;;1999.90;999.90;;;1.70;96.90;;;;;;5064979;28;20080;-70
2021/04/08 05:10:43;;;;;;;1999.90;999.90;;;1.60;96.70;;;;;;5057743;28;20067;-69
2021/04/08 05:13:10;;;;;;;1999.90;999.90;;;1.50;96.70;;;;;;5056443;28;20041;-69
2021/04/08 05:15:36;;;;;;;1999.90;999.90;;;1.50;96.70;;;;;;5059713;28;20051;-69
2021/04/08 05:18:12;;;;;;;1999.90;999.90;;;1.40;96.70;;;;;;5055321;28;20606;-69
2021/04/08 05:20:38;;;;;;;1999.90;999.90;;;1.40;96.70;;;;;;5074460;28;20127;-69
2021/04/08 05:23:04;;;;;;;1999.90;999.90;;;1.30;96.80;;;;;;5060178;28;20044;-70
2021/04/08 05:25:30;;;;;;;1999.90;999.90;;;1.30;96.80;;;;;;5056622;28;20499;-69
2021/04/08 05:27:57;;;;;;;1999.90;999.90;;;1.20;96.80;;;;;;5057805;28;20058;-69
2021/04/08 05:30:24;;;;;;;1999.90;999.90;;;1.20;96.80;;;;;;5061122;28;20045;-69
2021/04/08 05:32:50;;;;;;;1999.90;999.90;;;1.20;96.90;;;;;;5059206;28;20052;-70
2021/04/08 05:35:17;;;;;;;1999.90;999.90;;;1.10;96.90;;;;;;5062829;28;20109;-69
2021/04/08 05:37:43;;;;;;;1999.90;999.90;;;1.10;96.90;;;;;;5052196;28;20045;-69
2021/04/08 05:40:10;;;;;;;1999.90;999.90;;;1.10;97.00;;;;;;5062161;28;20480;-69
2021/04/08 05:42:37;;;;;;;1999.90;999.90;;;1.10;97.10;;;;;;5054490;28;20411;-69
2021/04/08 05:45:04;;;;;;;1999.90;999.90;;;1.10;97.20;;;;;;5066438;28;20127;-69
2021/04/08 05:47:30;;;;;;;1999.90;999.90;;;1.20;97.30;;;;;;5066952;28;20131;-69
2021/04/08 05:49:56;;;;;;;1999.90;999.90;;;1.20;97.40;;;;;;5067585;28;20080;-69
2021/04/08 05:52:22;;;;;;;1999.90;999.90;;;1.30;97.50;;;;;;5067527;28;20476;-69
2021/04/08 05:54:49;;;;;;;1999.90;999.90;;;1.30;97.60;;;;;;5059150;28;20045;-69
2021/04/08 05:57:15;;;;;;;1999.90;999.90;;;1.40;97.80;;;;;;5061049;28;20163;-69
2021/04/08 05:59:41;;;;;;;1999.90;999.90;;;1.50;98.00;;;;;;5063158;28;20123;-69
2021/04/08 06:02:07;;;;;;;1999.90;999.90;;;1.60;98.10;;;;;;5064722;28;20777;-69
2021/04/08 06:04:33;;;;;;;1999.90;999.90;;;1.70;98.30;;;;;;5059622;28;20480;-69
2021/04/08 06:07:00;;;;;;;1999.90;999.90;;;1.80;98.40;;;;;;5058474;28;20063;-69
2021/04/08 06:09:26;;;;;;;1999.90;999.90;;;2.00;98.70;;;;;;5061021;28;20140;-69
2021/04/08 06:11:52;;;;;;;1999.90;999.90;;;2.10;98.70;;;;;;5065508;28;20582;-69
2021/04/08 06:14:19;;;;;;;1999.90;999.90;;;2.30;98.80;;;;;;5061190;28;20062;-70
2021/04/08 06:16:45;;;;;;;1999.90;999.90;;;2.40;98.80;;;;;;5064489;28;20049;-70
2021/04/08 06:19:11;;;;;;;1999.90;999.90;;;2.50;98.90;;;;;;5058725;28;20056;-70
2021/04/08 06:21:39;;;;;;;1999.90;999.90;;;2.70;99.20;;;;;;5060978;28;20100;-70
2021/04/08 06:24:07;;;;;;;1999.90;999.90;;;2.80;99.30;;;;;;5062274;28;20078;-70
2021/04/08 06:26:35;;;;;;;1999.90;999.90;;;2.90;99.10;;;;;;5061218;28;20075;-70
2021/04/08 06:29:02;;;;;;;1999.90;999.90;;;2.90;98.80;;;;;;5071638;28;20072;-70
2021/04/08 06:31:47;;;;;;;1999.90;999.90;;;3.00;98.50;;;;;;5067308;28;20118;-70
2021/04/08 06:34:13;;;;;;;1999.90;999.90;;;3.00;98.40;;;;;;5069140;28;20049;-70
2021/04/08 06:36:39;;;;;;;1999.90;999.90;;;3.00;98.20;;;;;;5065142;28;20133;-70
2021/04/08 06:39:06;;;;;;;1999.90;999.90;;;3.00;98.00;;;;;;5070597;28;20054;-70
2021/04/08 06:41:36;;;;;;;1999.90;999.90;;;3.00;97.80;;;;;;5069886;28;20502;-70
2021/04/08 06:44:05;;;;;;;1999.90;999.90;;;3.00;97.70;;;;;;5070380;28;20059;-70
2021/04/08 06:46:37;;;;;;;1999.90;999.90;;;3.10;97.70;;;;;;5071987;28;20051;-70
2021/04/08 06:49:34;;;;;;;1999.90;999.90;;;3.10;97.80;;;;;;5064647;28;20403;-69
2021/04/08 06:52:01;;;;;;;1999.90;999.90;;;3.20;98.00;;;;;;5061857;28;20381;-70
2021/04/08 06:54:29;;;;;;;1999.90;999.90;;;3.30;97.90;;;;;;5066939;28;20438;-70
2021/04/08 06:56:56;;;;;;;1999.90;999.90;;;3.40;98.10;;;;;;5061668;28;20428;-70
2021/04/08 06:59:22;;;;;;;1999.90;999.90;;;3.60;98.10;;;;;;5063703;28;20348;-70
2021/04/08 07:01:49;;;;;;;1999.90;999.90;;;3.80;98.20;;;;;;5068000;28;20056;-70
2021/04/08 07:04:16;;;;;;;1999.90;999.90;;;3.90;98.00;;;;;;5068284;28;20052;-70
2021/04/08 07:06:42;;;;;;;1999.90;999.90;;;4.00;98.20;;;;;;5068274;28;20149;-70
2021/04/08 07:09:11;;;;;;;1999.90;999.90;;;4.20;98.30;;;;;;5070389;28;20052;-70
2021/04/08 07:11:39;;;;;;;1999.90;999.90;;;4.30;97.90;;;;;;5069925;28;20052;-70
2021/04/08 07:14:09;;;;;;;1999.90;999.90;;;4.40;98.00;;;;;;5068077;28;20049;-70
2021/04/08 07:16:36;;;;;;;1999.90;999.90;;;4.60;97.80;;;;;;5069256;28;20052;-70
2021/04/08 07:19:05;;;;;;;1999.90;999.90;;;4.70;97.70;;;;;;5072006;28;20040;-70
2021/04/08 07:21:33;;;;;;;1999.90;999.90;;;4.80;97.40;;;;;;5067362;28;20056;-70
2021/04/08 07:24:09;;;;;;;1999.90;999.90;;;4.80;97.20;;;;;;5062064;28;20411;-70
2021/04/08 07:26:57;;;;;;;1999.90;999.90;;;4.90;97.00;;;;;;5066059;28;20055;-70
2021/04/08 07:29:44;;;;;;;1999.90;999.90;;;4.90;96.70;;;;;;5060911;28;20053;-70
2021/04/08 07:32:26;;;;;;;1999.90;999.90;;;4.90;96.30;;;;;;5068476;28;20045;-70
2021/04/08 07:35:02;;;;;;;1999.90;999.90;;;4.80;96.50;;;;;;5060156;28;20132;-70
2021/04/08 07:37:34;;;;;;;1999.90;999.90;;;4.90;96.50;;;;;;5067199;28;20049;-70
2021/04/08 07:40:05;;;;;;;1999.90;999.90;;;5.00;96.90;;;;;;5069618;28;20143;-70
2021/04/08 07:42:33;;;;;;;1999.90;999.90;;;5.10;96.50;;;;;;5069379;28;20044;-70
2021/04/08 07:45:02;;;;;;;1999.90;999.90;;;5.30;96.60;;;;;;5069455;28;20056;-70
2021/04/08 07:47:43;;;;;;;1999.90;999.90;;;5.40;96.70;;;;;;5070116;28;20164;-70
2021/04/08 07:50:15;;;;;;;1999.90;999.90;;;5.60;96.60;;;;;;5062655;28;20474;-70
2021/04/08 07:52:49;;;;;;;1999.90;999.90;;;5.70;96.60;;;;;;5062584;28;20129;-70
2021/04/08 07:55:27;;;;;;;1999.90;999.90;;;5.90;95.60;;;;;;5062988;28;20122;-70
2021/04/08 07:58:06;;;;;;;1999.90;999.90;;;6.10;96.40;;;;;;5067791;28;20056;-70
2021/04/08 08:00:52;;;;;;;1999.90;999.90;;;6.40;96.40;;;;;;5061719;28;20147;-70
2021/04/08 08:03:35;;;;;;;1999.90;999.90;;;6.60;95.00;;;;;;5068451;28;20049;-70
2021/04/08 08:06:03;;;;;;;1999.90;999.90;;;6.50;94.10;;;;;;5067913;28;20048;-70
2021/04/08 08:08:41;;;;;;;1999.90;999.90;;;6.40;94.50;;;;;;5066362;28;20080;-70
2021/04/08 08:11:11;;;;;;;1999.90;999.90;;;6.30;94.30;;;;;;5067216;28;20045;-70
2021/04/08 08:13:39;;;;;;;1999.90;999.90;;;6.30;94.10;;;;;;5065962;28;20087;-70
2021/04/08 08:16:07;;;;;;;1999.90;999.90;;;6.20;93.90;;;;;;5065642;28;20080;-70
2021/04/08 08:18:39;;;;;;;1999.90;999.90;;;6.10;94.70;;;;;;5065221;28;20496;-70
2021/04/08 08:21:17;;;;;;;1999.90;999.90;;;6.10;94.40;;;;;;5067146;28;20089;-70
2021/04/08 08:23:52;;;;;;;1999.90;999.90;;;6.10;94.40;;;;;;5063334;28;20494;-71
2021/04/08 08:26:37;;;;;;;1999.90;999.90;;;6.10;94.80;;;;;;5069235;28;20055;-70
2021/04/08 08:29:06;;;;;;;1999.90;999.90;;;6.20;94.80;;;;;;5066277;28;20055;-70
2021/04/08 08:31:32;;;;;;;;;;;6.30;95.10;;;;;;5059957;28;20055;-70
2021/04/08 08:34:12;;;;;;;1999.90;999.90;;;6.30;93.70;;;;;;5079089;28;19951;-70
2021/04/08 08:36:39;;;;;;;1999.90;999.90;;;6.30;94.80;;;;;;5057343;28;20560;-70
2021/04/08 08:39:09;;;;;;;1999.90;999.90;;;6.30;95.40;;;;;;5064678;28;20045;-70
2021/04/08 08:41:38;;;;;;;1999.90;999.90;;;6.40;95.30;;;;;;5065020;28;20060;-70
2021/04/08 08:44:10;;;;;;;1999.90;999.90;;;6.40;94.90;;;;;;5063632;28;20072;-70
2021/04/08 08:46:53;;;;;;;1999.90;999.90;;;6.40;95.20;;;;;;5066718;28;20045;-70
2021/04/08 08:49:29;;;;;;;1999.90;999.90;;;6.50;95.80;;;;;;5063207;28;20037;-70
2021/04/08 08:51:59;;;;;;;1999.90;999.90;;;6.50;95.20;;;;;;5049269;28;20087;-70
2021/04/08 08:54:27;;;;;;;1999.90;999.90;;;6.60;96.10;;;;;;5061062;28;20132;-70
2021/04/08 08:56:55;;;;;;;1999.90;999.90;;;6.70;95.70;;;;;;5058283;28;20385;-70
2021/04/08 08:59:23;;;;;;;1999.90;999.90;;;6.80;95.40;;;;;;5062576;28;20048;-70
2021/04/08 09:01:50;;;;;;;1999.90;999.90;;;6.80;95.50;;;;;;5061198;28;20062;-70
2021/04/08 09:04:16;;;;;;;1999.90;999.90;;;6.80;94.80;;;;;;5068597;28;20566;-70
2021/04/08 09:06:56;;;;;;;1999.90;999.90;;;6.90;95.50;;;;;;5061493;28;20048;-70
2021/04/08 09:09:26;;;;;;;1999.90;999.90;;;6.90;95.50;;;;;;5068273;28;20041;-70
2021/04/08 09:11:52;;;;;;;;;;;6.90;94.00;;;;;;5062693;28;20040;-70
2021/04/08 09:14:19;;;;;;;1999.90;999.90;;;6.80;91.40;;;;;;5051079;28;19927;-71
2021/04/08 09:16:54;;;;;;;1999.90;999.90;;;6.70;94.00;;;;;;5058553;28;20049;-70
2021/04/08 09:19:25;;;;;;;1999.90;999.90;;;6.60;93.80;;;;;;5059256;28;20086;-70
2021/04/08 09:21:54;;;;;;;1999.90;999.90;;;6.60;92.70;;;;;;5060732;28;20151;-70
2021/04/08 09:24:31;;;;;;;1999.90;999.90;;;6.50;92.10;;;;;;5073641;28;20093;-71
2021/04/08 09:26:58;;;;;;;1999.90;999.90;;;6.40;93.00;;;;;;5060241;28;20128;-70
2021/04/08 09:29:34;;;;;;;1999.90;999.90;;;6.40;94.10;;;;;;5056937;28;20131;-70
2021/04/08 09:32:22;;;;;;;1999.90;999.90;;;6.50;94.10;;;;;;5060471;28;20076;-71
2021/04/08 09:35:04;;;;;;;1999.90;999.90;;;6.60;92.90;;;;;;5060084;28;20040;-70
2021/04/08 09:37:45;;;;;;;1999.90;999.90;;;6.60;92.30;;;;;;5067711;28;20059;-70
2021/04/08 09:40:21;;;;;;;1999.90;999.90;;;6.60;91.80;;;;;;5062550;28;20091;-70
2021/04/08 09:42:51;;;;;;;1999.90;999.90;;;6.50;91.10;;;;;;5056529;28;20369;-71
2021/04/08 09:45:19;;;;;;;1999.90;999.90;;;6.50;91.80;;;;;;5062092;28;20045;-71
2021/04/08 09:47:45;;;;;;;1999.90;999.90;;;6.50;91.40;;;;;;5062561;28;20133;-70
2021/04/08 09:50:42;;;;;;;1999.90;999.90;;;6.50;92.20;;;;;;5062392;28;20050;-70
2021/04/08 09:53:09;;;;;;;1999.90;999.90;;;6.60;90.50;;;;;;5062352;28;20213;-70
2021/04/08 09:55:36;;;;;;;1999.90;999.90;;;6.60;92.30;;;;;;5064941;28;20044;-70
2021/04/08 09:58:05;;;;;;;1999.90;999.90;;;6.60;91.10;;;;;;5064028;28;20114;-70
2021/04/08 10:00:32;;;;;;;1999.90;999.90;;;6.60;90.70;;;;;;5066399;28;20453;-70
2021/04/08 10:03:07;;;;;;;1999.90;999.90;;;6.60;90.70;;;;;;5064855;28;20044;-70
2021/04/08 10:05:37;;;;;;;1999.90;999.90;;;6.60;90.10;;;;;;5067034;28;20086;-70
2021/04/08 10:08:04;;;;;;;1999.90;999.90;;;6.60;89.50;;;;;;5064877;28;20052;-70
2021/04/08 10:10:36;;;;;;;1999.90;999.90;;;6.60;90.10;;;;;;5071488;28;20048;-70
2021/04/08 10:13:25;;;;;;;1999.90;999.90;;;6.70;90.90;;;;;;5062680;28;20510;-70
2021/04/08 10:15:54;;;;;;;1999.90;999.90;;;6.80;89.80;;;;;;5065870;28;20060;-70
2021/04/08 10:18:22;;;;;;;1999.90;999.90;;;6.80;89.60;;;;;;5052968;28;20119;-70
2021/04/08 10:20:52;;;;;;;1999.90;999.90;;;7.00;90.30;;;;;;5053547;28;22203;-70
2021/04/08 10:23:47;;;;;;;1999.90;999.90;;;7.10;88.20;;;;;;5077260;28;20084;-70
2021/04/08 10:26:17;;;;;;;1999.90;999.90;;;7.20;88.00;;;;;;5056838;28;20052;-70
2021/04/08 10:28:51;;;;;;;1999.90;999.90;;;7.20;86.40;;;;;;5059972;28;20051;-70
2021/04/08 10:31:26;;;;;;;1999.90;999.90;;;7.30;86.40;;;;;;5059399;28;20057;-70
2021/04/08 10:34:19;;;;;;;1999.90;999.90;;;7.30;87.20;;;;;;5058977;28;20098;-70
2021/04/08 10:36:55;;;;;;;1999.90;999.90;;;7.40;88.70;;;;;;5056675;28;20052;-71
2021/04/08 10:39:34;;;;;;;1999.90;999.90;;;7.60;89.50;;;;;;5059446;28;20043;-71
2021/04/08 10:42:09;;;;;;;1999.90;999.90;;;7.80;90.10;;;;;;5058878;28;20096;-70
2021/04/08 10:44:37;;;;;;;1999.90;999.90;;;7.90;88.10;;;;;;5057388;28;20468;-71
2021/04/08 10:47:06;;;;;;;1999.90;999.90;;;8.00;90.80;;;;;;5057858;28;20041;-71
2021/04/08 10:49:56;;;;;;;1999.90;999.90;;;8.20;90.00;;;;;;5054603;28;20129;-70
2021/04/08 10:52:34;;;;;;;1999.90;999.90;;;8.20;85.10;;;;;;5057443;28;20045;-70
2021/04/08 10:55:04;;;;;;;1999.90;999.90;;;8.30;90.00;;;;;;5058536;28;20130;-70
2021/04/08 10:57:31;;;;;;;1999.90;999.90;;;8.30;84.50;;;;;;5056700;28;20074;-70
2021/04/08 10:59:58;;;;;;;1999.90;999.90;;;8.20;83.70;;;;;;5059468;28;20060;-70
2021/04/08 11:02:33;;;;;;;1999.90;999.90;;;8.20;87.20;;;;;;5054336;28;20047;-70
2021/04/08 11:05:06;;;;;;;1999.90;999.90;;;8.30;83.90;;;;;;5057180;28;20529;-71
2021/04/08 11:07:40;;;;;;;1999.90;999.90;;;8.30;86.10;;;;;;5055917;28;20129;-71
2021/04/08 11:10:11;;;;;;;1999.90;999.90;;;8.40;87.20;;;;;;5050585;28;20136;-71
2021/04/08 11:12:38;;;;;;;1999.90;999.90;;;8.50;84.80;;;;;;5056550;28;20060;-70
2021/04/08 11:15:06;;;;;;;1999.90;999.90;;;8.50;86.60;;;;;;5059138;28;20852;-70
2021/04/08 11:17:35;;;;;;;1999.90;999.90;;;8.40;82.80;;;;;;5063525;28;20076;-70
2021/04/08 11:20:02;;;;;;;1999.90;999.90;;;8.30;86.90;;;;;;5064621;28;20049;-70
2021/04/08 11:22:32;;;;;;;1999.90;999.90;;;8.30;85.50;;;;;;5066508;28;20088;-71
2021/04/08 11:24:59;;;;;;;1999.90;999.90;;;8.40;83.40;;;;;;5090094;28;20118;-71
2021/04/08 11:27:36;;;;;;;1999.90;999.90;;;8.40;88.40;;;;;;5069005;28;20408;-70
2021/04/08 11:30:04;;;;;;;1999.90;999.90;;;8.40;84.30;;;;;;5065265;28;20059;-71
2021/04/08 11:32:41;;;;;;;1999.90;999.90;;;8.30;86.60;;;;;;5068398;28;20494;-70
2021/04/08 11:35:08;;;;;;;1999.90;999.90;;;8.30;87.50;;;;;;5063975;28;20105;-70
2021/04/08 11:37:39;;;;;;;1999.90;999.90;;;8.40;86.60;;;;;;5074330;28;20051;-70
2021/04/08 11:40:09;;;;;;;1999.90;999.90;;;8.50;88.00;;;;;;5057714;28;20040;-71
2021/04/08 11:42:39;;;;;;;1999.90;999.90;;;8.50;86.40;;;;;;5069980;28;20063;-71
2021/04/08 11:45:27;;;;;;;1999.90;999.90;;;8.60;85.60;;;;;;5069803;28;20052;-71
2021/04/08 11:48:06;;;;;;;1999.90;999.90;;;8.60;83.30;;;;;;5066588;28;20084;-70
2021/04/08 11:50:32;;;;;;;;;;;8.70;82.50;;;;;;5067018;28;20055;-70
2021/04/08 11:53:31;;;;;;;1999.90;999.90;;;8.60;79.70;;;;;;5066211;28;20390;-70
2021/04/08 11:55:57;;;;;;;1999.90;999.90;;;8.70;84.30;;;;;;5067683;28;20059;-70
2021/04/08 11:58:25;;;;;;;1999.90;999.90;;;8.70;85.90;;;;;;5065050;28;20385;-71
2021/04/08 12:00:51;;;;;;;1999.90;999.90;;;8.70;86.40;;;;;;5065705;28;20082;-70
2021/04/08 12:03:20;;;;;;;1999.90;999.90;;;8.90;85.10;;;;;;5068294;28;20131;-70
2021/04/08 12:05:47;;;;;;;;;;;8.90;82.00;;;;;;5063270;28;20472;-70
2021/04/08 12:08:14;;;;;;;1999.90;999.90;;;9.00;82.30;;;;;;5070428;28;19924;-71
2021/04/08 12:10:41;;;;;;;1999.90;999.90;;;8.90;83.40;;;;;;5065799;28;20547;-71
2021/04/08 12:13:09;;;;;;;1999.90;999.90;;;8.80;85.60;;;;;;5063675;28;20059;-71
2021/04/08 12:15:36;;;;;;;;;;;8.80;86.80;;;;;;5058660;28;20053;-71
2021/04/08 12:18:16;;;;;;;1999.90;999.90;;;8.70;83.70;;;;;;5062916;28;19920;-71
2021/04/08 12:20:43;;;;;;;1999.90;999.90;;;8.70;86.10;;;;;;5059992;28;20416;-71
2021/04/08 12:23:13;;;;;;;1999.90;999.90;;;8.60;84.70;;;;;;5067099;28;20080;-71
2021/04/08 12:25:50;;;;;;;1999.90;999.90;;;8.50;84.90;;;;;;5064290;28;20044;-71
2021/04/08 12:28:20;;;;;;;1999.90;999.90;;;8.50;85.10;;;;;;5049384;28;20060;-71
2021/04/08 12:30:56;;;;;;;1999.90;999.90;;;8.40;84.20;;;;;;5061926;28;20473;-71
2021/04/08 12:33:24;;;;;;;1999.90;999.90;;;8.40;85.80;;;;;;5065015;28;20055;-71
2021/04/08 12:35:51;;;;;;;1999.90;999.90;;;8.40;85.20;;;;;;5063285;28;20135;-71